sensor_id;sensor_type;location;lat;lon;timestamp;pressure;altitude;pressure_sealevel;temperature;humidity
32197;BME280;18697;42.770;23.400;2023-05-20T00:00:06;95904.44;;;19.18;59.32
32197;BME280;18697;42.770;23.400;2023-05-20T00:02:32;95914.44;;;19.08;57.84
32197;BME280;18697;42.770;23.400;2023-05-20T00:04:57;95917.69;;;18.12;58.16
32197;BME280;18697;42.770;23.400;2023-05-20T00:07:23;95907.38;;;17.86;60.57
32197;BME280;18697;42.770;23.400;2023-05-20T00:09:48;95910.00;;;17.41;62.70
32197;BME280;18697;42.770;23.400;2023-05-20T00:12:14;95907.25;;;17.53;63.98
32197;BME280;18697;42.770;23.400;2023-05-20T00:14:39;95902.56;;;16.90;62.92
32197;BME280;18697;42.770;23.400;2023-05-20T00:17:04;95910.72;;;16.62;68.32
32197;BME280;18697;42.770;23.400;2023-05-20T00:19:30;95905.28;;;17.22;66.30
32197;BME280;18697;42.770;23.400;2023-05-20T00:21:55;95906.44;;;17.41;64.00
32197;BME280;18697;42.770;23.400;2023-05-20T00:24:22;95901.78;;;17.32;64.52
32197;BME280;18697;42.770;23.400;2023-05-20T00:26:48;95891.16;;;17.48;64.41
32197;BME280;18697;42.770;23.400;2023-05-20T00:29:13;95905.34;;;17.87;63.69
32197;BME280;18697;42.770;23.400;2023-05-20T00:31:39;95898.25;;;18.02;63.57
32197;BME280;18697;42.770;23.400;2023-05-20T00:34:04;95905.97;;;18.24;62.95
32197;BME280;18697;42.770;23.400;2023-05-20T00:36:30;95889.63;;;18.28;62.50
32197;BME280;18697;42.770;23.400;2023-05-20T00:38:55;95886.56;;;18.49;62.28
32197;BME280;18697;42.770;23.400;2023-05-20T00:41:21;95884.25;;;18.58;61.31
32197;BME280;18697;42.770;23.400;2023-05-20T00:43:46;95885.81;;;18.70;60.81
32197;BME280;18697;42.770;23.400;2023-05-20T00:46:12;95889.41;;;18.82;60.77
32197;BME280;18697;42.770;23.400;2023-05-20T00:48:42;95880.69;;;18.80;60.80
32197;BME280;18697;42.770;23.400;2023-05-20T00:51:09;95880.69;;;18.80;60.52
32197;BME280;18697;42.770;23.400;2023-05-20T00:53:35;95879.41;;;18.81;60.59
32197;BME280;18697;42.770;23.400;2023-05-20T00:56:02;95881.97;;;18.85;60.38
32197;BME280;18697;42.770;23.400;2023-05-20T00:58:28;95887.34;;;18.88;60.19
32197;BME280;18697;42.770;23.400;2023-05-20T01:00:54;95898.34;;;18.92;59.93
32197;BME280;18697;42.770;23.400;2023-05-20T01:03:19;95895.00;;;18.93;59.97
32197;BME280;18697;42.770;23.400;2023-05-20T01:05:45;95888.63;;;18.87;59.81
32197;BME280;18697;42.770;23.400;2023-05-20T01:08:10;95888.88;;;18.84;59.57
32197;BME280;18697;42.770;23.400;2023-05-20T01:10:39;95892.47;;;18.73;60.08
32197;BME280;18697;42.770;23.400;2023-05-20T01:13:10;95888.63;;;18.70;59.27
32197;BME280;18697;42.770;23.400;2023-05-20T01:15:40;95895.53;;;18.69;60.53
32197;BME280;18697;42.770;23.400;2023-05-20T01:18:08;95893.22;;;18.62;60.71
32197;BME280;18697;42.770;23.400;2023-05-20T01:20:35;95891.91;;;18.58;59.62
32197;BME280;18697;42.770;23.400;2023-05-20T01:23:02;95887.09;;;18.47;58.94
32197;BME280;18697;42.770;23.400;2023-05-20T01:25:28;95882.22;;;18.64;60.62
32197;BME280;18697;42.770;23.400;2023-05-20T01:27:55;95882.97;;;18.59;60.58
32197;BME280;18697;42.770;23.400;2023-05-20T01:30:23;95886.31;;;18.47;60.48
32197;BME280;18697;42.770;23.400;2023-05-20T01:32:53;95874.78;;;18.28;60.49
32197;BME280;18697;42.770;23.400;2023-05-20T01:35:20;95880.94;;;18.32;60.12
32197;BME280;18697;42.770;23.400;2023-05-20T01:37:47;95888.09;;;18.33;61.06
32197;BME280;18697;42.770;23.400;2023-05-20T01:40:14;95883.38;;;17.85;59.63
32197;BME280;18697;42.770;23.400;2023-05-20T01:42:41;95888.75;;;17.78;61.99
32197;BME280;18697;42.770;23.400;2023-05-20T01:45:07;95890.28;;;17.79;62.96
32197;BME280;18697;42.770;23.400;2023-05-20T01:47:33;95896.16;;;17.86;61.89
32197;BME280;18697;42.770;23.400;2023-05-20T01:49:58;95886.25;;;18.08;62.16
32197;BME280;18697;42.770;23.400;2023-05-20T01:52:23;95887.03;;;18.14;61.14
32197;BME280;18697;42.770;23.400;2023-05-20T01:54:49;95880.69;;;18.30;61.21
32197;BME280;18697;42.770;23.400;2023-05-20T01:57:18;95883.09;;;17.72;58.45
32197;BME280;18697;42.770;23.400;2023-05-20T01:59:44;95893.75;;;16.71;61.54
32197;BME280;18697;42.770;23.400;2023-05-20T02:02:09;95892.22;;;17.07;65.03
32197;BME280;18697;42.770;23.400;2023-05-20T02:04:35;95898.69;;;17.25;64.13
32197;BME280;18697;42.770;23.400;2023-05-20T02:07:01;95879.97;;;17.59;62.96
32197;BME280;18697;42.770;23.400;2023-05-20T02:09:27;95880.56;;;17.85;62.88
32197;BME280;18697;42.770;23.400;2023-05-20T02:11:52;95859.63;;;17.86;62.75
32197;BME280;18697;42.770;23.400;2023-05-20T02:14:18;95870.94;;;18.09;61.67
32197;BME280;18697;42.770;23.400;2023-05-20T02:16:45;95861.47;;;18.12;61.47
32197;BME280;18697;42.770;23.400;2023-05-20T02:19:10;95861.25;;;18.32;60.96
32197;BME280;18697;42.770;23.400;2023-05-20T02:21:38;95872.75;;;18.34;60.63
32197;BME280;18697;42.770;23.400;2023-05-20T02:24:04;95867.91;;;18.29;60.40
32197;BME280;18697;42.770;23.400;2023-05-20T02:26:30;95873.50;;;18.18;58.59
32197;BME280;18697;42.770;23.400;2023-05-20T02:28:55;95871.94;;;18.11;60.64
32197;BME280;18697;42.770;23.400;2023-05-20T02:31:21;95859.94;;;18.11;60.83
32197;BME280;18697;42.770;23.400;2023-05-20T02:33:47;95871.97;;;18.17;59.97
32197;BME280;18697;42.770;23.400;2023-05-20T02:36:12;95864.81;;;18.32;60.36
32197;BME280;18697;42.770;23.400;2023-05-20T02:38:38;95868.41;;;18.22;59.35
32197;BME280;18697;42.770;23.400;2023-05-20T02:41:03;95873.78;;;18.42;59.90
32197;BME280;18697;42.770;23.400;2023-05-20T02:43:29;95860.75;;;18.33;59.03
32197;BME280;18697;42.770;23.400;2023-05-20T02:45:56;95862.50;;;18.14;59.75
32197;BME280;18697;42.770;23.400;2023-05-20T02:48:21;95866.78;;;17.87;59.73
32197;BME280;18697;42.770;23.400;2023-05-20T02:50:46;95871.16;;;17.99;60.56
32197;BME280;18697;42.770;23.400;2023-05-20T02:53:12;95867.59;;;17.99;59.91
32197;BME280;18697;42.770;23.400;2023-05-20T02:55:39;95871.97;;;18.17;60.61
32197;BME280;18697;42.770;23.400;2023-05-20T02:58:05;95879.13;;;18.29;60.30
32197;BME280;18697;42.770;23.400;2023-05-20T03:00:30;95875.81;;;18.36;60.11
32197;BME280;18697;42.770;23.400;2023-05-20T03:02:56;95880.69;;;18.30;60.01
32197;BME280;18697;42.770;23.400;2023-05-20T03:05:21;95892.09;;;17.98;59.62
32197;BME280;18697;42.770;23.400;2023-05-20T03:07:47;95898.97;;;17.92;60.42
32197;BME280;18697;42.770;23.400;2023-05-20T03:10:13;95893.59;;;17.88;60.97
32197;BME280;18697;42.770;23.400;2023-05-20T03:12:45;95898.22;;;17.91;60.94
32197;BME280;18697;42.770;23.400;2023-05-20T03:15:11;95896.72;;;18.01;60.94
32197;BME280;18697;42.770;23.400;2023-05-20T03:17:36;95890.31;;;18.01;60.16
32197;BME280;18697;42.770;23.400;2023-05-20T03:20:02;95896.44;;;17.94;60.83
32197;BME280;18697;42.770;23.400;2023-05-20T03:22:31;95888.78;;;17.94;60.90
32197;BME280;18697;42.770;23.400;2023-05-20T03:24:56;95900.78;;;18.00;61.32
32197;BME280;18697;42.770;23.400;2023-05-20T03:27:22;95904.13;;;18.04;60.99
32197;BME280;18697;42.770;23.400;2023-05-20T03:29:50;95889.28;;;17.93;61.11
32197;BME280;18697;42.770;23.400;2023-05-20T03:32:19;95885.19;;;17.94;60.53
32197;BME280;18697;42.770;23.400;2023-05-20T03:34:44;95889.78;;;17.86;61.20
32197;BME280;18697;42.770;23.400;2023-05-20T03:37:09;95886.19;;;17.80;61.42
32197;BME280;18697;42.770;23.400;2023-05-20T03:39:35;95903.84;;;17.91;60.25
32197;BME280;18697;42.770;23.400;2023-05-20T03:42:00;95902.06;;;17.94;61.32
32197;BME280;18697;42.770;23.400;2023-05-20T03:44:25;95897.72;;;17.98;60.72
32197;BME280;18697;42.770;23.400;2023-05-20T03:46:51;95892.34;;;17.89;60.11
32197;BME280;18697;42.770;23.400;2023-05-20T03:49:16;95893.16;;;18.06;60.94
32197;BME280;18697;42.770;23.400;2023-05-20T03:51:41;95908.50;;;18.17;59.96
32197;BME280;18697;42.770;23.400;2023-05-20T03:54:07;95900.06;;;18.11;58.98
32197;BME280;18697;42.770;23.400;2023-05-20T03:56:32;95901.56;;;17.95;60.40
32197;BME280;18697;42.770;23.400;2023-05-20T03:58:58;95909.50;;;18.02;60.67
32197;BME280;18697;42.770;23.400;2023-05-20T04:01:23;95898.50;;;18.04;60.18
32197;BME280;18697;42.770;23.400;2023-05-20T04:03:50;95913.59;;;18.13;59.15
32197;BME280;18697;42.770;23.400;2023-05-20T04:06:15;95914.00;;;17.72;60.12
32197;BME280;18697;42.770;23.400;2023-05-20T04:08:40;95913.13;;;16.43;61.38
32197;BME280;18697;42.770;23.400;2023-05-20T04:11:06;95915.13;;;14.75;69.72
32197;BME280;18697;42.770;23.400;2023-05-20T04:13:32;95923.97;;;15.84;67.70
32197;BME280;18697;42.770;23.400;2023-05-20T04:15:58;95927.78;;;15.61;66.77
32197;BME280;18697;42.770;23.400;2023-05-20T04:18:25;95917.38;;;15.06;67.54
32197;BME280;18697;42.770;23.400;2023-05-20T04:20:54;95925.44;;;13.95;72.02
32197;BME280;18697;42.770;23.400;2023-05-20T04:23:23;95921.03;;;14.97;73.04
32197;BME280;18697;42.770;23.400;2023-05-20T04:25:48;95933.09;;;15.79;70.47
32197;BME280;18697;42.770;23.400;2023-05-20T04:28:14;95939.94;;;15.98;68.19
32197;BME280;18697;42.770;23.400;2023-05-20T04:30:40;95943.69;;;16.16;70.13
32197;BME280;18697;42.770;23.400;2023-05-20T04:33:06;95941.44;;;16.71;68.55
32197;BME280;18697;42.770;23.400;2023-05-20T04:35:32;95942.97;;;17.04;66.94
32197;BME280;18697;42.770;23.400;2023-05-20T04:37:59;95940.81;;;17.30;65.33
32197;BME280;18697;42.770;23.400;2023-05-20T04:40:25;95932.13;;;17.71;64.08
32197;BME280;18697;42.770;23.400;2023-05-20T04:42:51;95939.25;;;17.66;64.28
32197;BME280;18697;42.770;23.400;2023-05-20T04:45:17;95925.28;;;17.78;63.78
32197;BME280;18697;42.770;23.400;2023-05-20T04:47:42;95930.88;;;17.78;64.29
32197;BME280;18697;42.770;23.400;2023-05-20T04:50:09;95933.47;;;17.92;63.59
32197;BME280;18697;42.770;23.400;2023-05-20T04:52:36;95933.47;;;17.81;64.72
32197;BME280;18697;42.770;23.400;2023-05-20T04:55:02;95940.09;;;17.78;64.22
32197;BME280;18697;42.770;23.400;2023-05-20T04:57:27;95941.84;;;17.76;64.51
32197;BME280;18697;42.770;23.400;2023-05-20T04:59:53;95932.28;;;17.08;65.36
32197;BME280;18697;42.770;23.400;2023-05-20T05:02:23;95943.28;;;16.80;66.42
32197;BME280;18697;42.770;23.400;2023-05-20T05:04:48;95945.72;;;17.41;66.04
32197;BME280;18697;42.770;23.400;2023-05-20T05:07:14;95944.38;;;16.31;68.43
32197;BME280;18697;42.770;23.400;2023-05-20T05:09:39;95930.66;;;16.13;70.85
32197;BME280;18697;42.770;23.400;2023-05-20T05:12:05;95932.38;;;16.30;70.68
32197;BME280;18697;42.770;23.400;2023-05-20T05:14:30;95925.25;;;16.35;70.77
32197;BME280;18697;42.770;23.400;2023-05-20T05:16:55;95927.34;;;16.40;70.44
32197;BME280;18697;42.770;23.400;2023-05-20T05:19:21;95919.31;;;15.75;72.11
32197;BME280;18697;42.770;23.400;2023-05-20T05:21:47;95928.63;;;16.13;71.93
32197;BME280;18697;42.770;23.400;2023-05-20T05:24:12;95929.66;;;16.41;70.04
32197;BME280;18697;42.770;23.400;2023-05-20T05:26:37;95941.47;;;15.99;71.64
32197;BME280;18697;42.770;23.400;2023-05-20T05:29:03;95941.63;;;15.90;74.18
32197;BME280;18697;42.770;23.400;2023-05-20T05:31:29;95933.50;;;15.92;73.78
32197;BME280;18697;42.770;23.400;2023-05-20T05:33:54;95931.81;;;16.00;73.68
32197;BME280;18697;42.770;23.400;2023-05-20T05:36:22;95938.41;;;15.97;73.31
32197;BME280;18697;42.770;23.400;2023-05-20T05:38:48;95925.88;;;15.72;75.10
32197;BME280;18697;42.770;23.400;2023-05-20T05:41:13;95929.38;;;15.67;75.25
32197;BME280;18697;42.770;23.400;2023-05-20T05:43:39;95925.13;;;15.72;74.76
32197;BME280;18697;42.770;23.400;2023-05-20T05:46:04;95925.59;;;15.30;76.81
32197;BME280;18697;42.770;23.400;2023-05-20T05:48:29;95939.22;;;15.22;78.88
32197;BME280;18697;42.770;23.400;2023-05-20T05:50:55;95932.19;;;15.88;75.65
32197;BME280;18697;42.770;23.400;2023-05-20T05:53:20;95928.66;;;15.93;75.16
32197;BME280;18697;42.770;23.400;2023-05-20T05:55:46;95930.44;;;15.90;76.44
32197;BME280;18697;42.770;23.400;2023-05-20T05:58:11;95929.91;;;16.12;76.79
32197;BME280;18697;42.770;23.400;2023-05-20T06:00:37;95930.44;;;16.42;74.83
32197;BME280;18697;42.770;23.400;2023-05-20T06:03:02;95926.09;;;16.67;73.81
32197;BME280;18697;42.770;23.400;2023-05-20T06:05:28;95923.56;;;17.00;73.69
32197;BME280;18697;42.770;23.400;2023-05-20T06:07:53;95897.94;;;17.30;72.16
32197;BME280;18697;42.770;23.400;2023-05-20T06:10:18;95915.00;;;17.21;72.16
32197;BME280;18697;42.770;23.400;2023-05-20T06:12:44;95888.56;;;17.44;71.04
32197;BME280;18697;42.770;23.400;2023-05-20T06:15:09;95894.47;;;17.52;70.91
32197;BME280;18697;42.770;23.400;2023-05-20T06:17:35;95897.25;;;17.46;71.14
32197;BME280;18697;42.770;23.400;2023-05-20T06:20:00;95896.13;;;17.69;70.38
32197;BME280;18697;42.770;23.400;2023-05-20T06:22:26;95903.41;;;17.50;70.37
32197;BME280;18697;42.770;23.400;2023-05-20T06:24:52;95901.00;;;17.75;70.85
32197;BME280;18697;42.770;23.400;2023-05-20T06:27:18;95888.53;;;18.03;69.78
32197;BME280;18697;42.770;23.400;2023-05-20T06:29:43;95902.78;;;17.72;70.67
32197;BME280;18697;42.770;23.400;2023-05-20T06:32:08;95898.47;;;17.34;72.93
32197;BME280;18697;42.770;23.400;2023-05-20T06:34:34;95897.69;;;17.76;71.40
32197;BME280;18697;42.770;23.400;2023-05-20T06:36:59;95893.16;;;18.06;70.95
32197;BME280;18697;42.770;23.400;2023-05-20T06:39:25;95887.28;;;18.10;70.79
32197;BME280;18697;42.770;23.400;2023-05-20T06:41:50;95884.22;;;18.19;70.48
32197;BME280;18697;42.770;23.400;2023-05-20T06:44:16;95880.69;;;18.35;70.02
32197;BME280;18697;42.770;23.400;2023-05-20T06:46:41;95878.91;;;18.77;68.77
32197;BME280;18697;42.770;23.400;2023-05-20T06:49:07;95877.84;;;19.19;69.47
32197;BME280;18697;42.770;23.400;2023-05-20T06:51:32;95871.34;;;19.52;68.16
32197;BME280;18697;42.770;23.400;2023-05-20T06:53:58;95868.16;;;19.78;66.02
32197;BME280;18697;42.770;23.400;2023-05-20T06:56:23;95863.72;;;19.94;64.85
32197;BME280;18697;42.770;23.400;2023-05-20T06:58:48;95873.28;;;20.21;63.78
32197;BME280;18697;42.770;23.400;2023-05-20T07:01:17;95873.16;;;20.43;63.05
32197;BME280;18697;42.770;23.400;2023-05-20T07:03:42;95866.78;;;20.73;63.52
32197;BME280;18697;42.770;23.400;2023-05-20T07:06:09;95868.47;;;20.81;61.82
32197;BME280;18697;42.770;23.400;2023-05-20T07:08:34;95871.66;;;20.72;62.21
32197;BME280;18697;42.770;23.400;2023-05-20T07:11:00;95871.44;;;20.70;61.69
32197;BME280;18697;42.770;23.400;2023-05-20T07:13:25;95859.69;;;20.90;63.01
32197;BME280;18697;42.770;23.400;2023-05-20T07:15:51;95857.75;;;20.80;61.82
32197;BME280;18697;42.770;23.400;2023-05-20T07:18:16;95860.50;;;20.85;61.97
32197;BME280;18697;42.770;23.400;2023-05-20T07:20:42;95860.34;;;20.78;57.64
32197;BME280;18697;42.770;23.400;2023-05-20T07:23:07;95863.44;;;20.74;59.57
32197;BME280;18697;42.770;23.400;2023-05-20T07:25:33;95853.97;;;20.96;61.30
32197;BME280;18697;42.770;23.400;2023-05-20T07:27:58;95851.16;;;21.20;60.48
32197;BME280;18697;42.770;23.400;2023-05-20T07:30:24;95853.91;;;21.31;59.71
32197;BME280;18697;42.770;23.400;2023-05-20T07:32:50;95859.69;;;21.63;59.21
32197;BME280;18697;42.770;23.400;2023-05-20T07:35:16;95853.81;;;21.80;56.24
32197;BME280;18697;42.770;23.400;2023-05-20T07:37:41;95847.56;;;21.87;56.44
32197;BME280;18697;42.770;23.400;2023-05-20T07:40:07;95841.97;;;22.01;55.67
32197;BME280;18697;42.770;23.400;2023-05-20T07:42:33;95842.81;;;21.77;54.34
32197;BME280;18697;42.770;23.400;2023-05-20T07:44:59;95866.81;;;21.89;55.50
32197;BME280;18697;42.770;23.400;2023-05-20T07:47:24;95854.72;;;21.51;53.25
32197;BME280;18697;42.770;23.400;2023-05-20T07:49:50;95851.53;;;21.79;54.10
32197;BME280;18697;42.770;23.400;2023-05-20T07:52:15;95855.84;;;21.61;54.42
32197;BME280;18697;42.770;23.400;2023-05-20T07:54:41;95855.50;;;21.27;56.53
32197;BME280;18697;42.770;23.400;2023-05-20T07:57:07;95870.72;;;21.43;55.46
32197;BME280;18697;42.770;23.400;2023-05-20T07:59:32;95862.03;;;21.59;55.99
32197;BME280;18697;42.770;23.400;2023-05-20T08:01:58;95861.00;;;21.81;56.08
32197;BME280;18697;42.770;23.400;2023-05-20T08:04:23;95833.44;;;22.06;57.28
32197;BME280;18697;42.770;23.400;2023-05-20T08:06:49;95845.31;;;22.05;53.30
32197;BME280;18697;42.770;23.400;2023-05-20T08:09:15;95847.59;;;22.06;51.12
32197;BME280;18697;42.770;23.400;2023-05-20T08:11:40;95843.34;;;22.32;53.50
32197;BME280;18697;42.770;23.400;2023-05-20T08:14:05;95839.91;;;22.01;49.59
32197;BME280;18697;42.770;23.400;2023-05-20T08:16:31;95838.88;;;22.04;52.11
32197;BME280;18697;42.770;23.400;2023-05-20T08:18:56;95843.50;;;21.83;49.82
32197;BME280;18697;42.770;23.400;2023-05-20T08:21:22;95833.41;;;21.69;50.59
32197;BME280;18697;42.770;23.400;2023-05-20T08:23:47;95850.50;;;21.57;51.16
32197;BME280;18697;42.770;23.400;2023-05-20T08:26:13;95849.59;;;21.68;51.23
32197;BME280;18697;42.770;23.400;2023-05-20T08:28:38;95839.91;;;21.63;50.98
32197;BME280;18697;42.770;23.400;2023-05-20T08:31:04;95839.44;;;21.59;50.28
32197;BME280;18697;42.770;23.400;2023-05-20T08:33:29;95836.41;;;21.76;51.20
32197;BME280;18697;42.770;23.400;2023-05-20T08:35:55;95835.59;;;21.57;51.59
32197;BME280;18697;42.770;23.400;2023-05-20T08:38:20;95833.47;;;21.63;51.53
32197;BME280;18697;42.770;23.400;2023-05-20T08:40:54;95829.66;;;21.60;49.96
32197;BME280;18697;42.770;23.400;2023-05-20T08:43:21;95827.06;;;21.81;50.82
32197;BME280;18697;42.770;23.400;2023-05-20T08:45:47;95838.09;;;21.85;51.01
32197;BME280;18697;42.770;23.400;2023-05-20T08:48:15;95830.66;;;21.82;50.16
32197;BME280;18697;42.770;23.400;2023-05-20T08:50:42;95837.31;;;21.84;49.23
32197;BME280;18697;42.770;23.400;2023-05-20T08:53:08;95832.69;;;22.06;49.87
32197;BME280;18697;42.770;23.400;2023-05-20T08:55:41;95833.22;;;22.23;49.83
32197;BME280;18697;42.770;23.400;2023-05-20T08:58:08;95848.88;;;22.24;49.59
32197;BME280;18697;42.770;23.400;2023-05-20T09:00:33;95831.47;;;22.20;49.76
32197;BME280;18697;42.770;23.400;2023-05-20T09:02:59;95840.41;;;22.24;48.11
32197;BME280;18697;42.770;23.400;2023-05-20T09:05:25;95840.75;;;22.34;48.86
32197;BME280;18697;42.770;23.400;2023-05-20T09:07:51;95837.34;;;22.54;47.81
32197;BME280;18697;42.770;23.400;2023-05-20T09:10:18;95826.34;;;22.50;47.38
32197;BME280;18697;42.770;23.400;2023-05-20T09:12:44;95824.28;;;22.83;49.41
32197;BME280;18697;42.770;23.400;2023-05-20T09:15:10;95825.81;;;22.84;46.88
32197;BME280;18697;42.770;23.400;2023-05-20T09:17:35;95826.94;;;22.75;47.72
32197;BME280;18697;42.770;23.400;2023-05-20T09:20:08;95827.81;;;22.70;47.63
32197;BME280;18697;42.770;23.400;2023-05-20T09:22:34;95818.41;;;22.81;47.51
32197;BME280;18697;42.770;23.400;2023-05-20T09:25:00;95815.25;;;22.84;47.48
32197;BME280;18697;42.770;23.400;2023-05-20T09:27:26;95805.28;;;22.78;47.84
32197;BME280;18697;42.770;23.400;2023-05-20T09:29:51;95800.88;;;22.82;46.30
32197;BME280;18697;42.770;23.400;2023-05-20T09:32:19;95802.72;;;22.93;46.64
32197;BME280;18697;42.770;23.400;2023-05-20T09:34:48;95806.22;;;22.99;46.26
32197;BME280;18697;42.770;23.400;2023-05-20T09:37:16;95808.59;;;23.08;46.70
32197;BME280;18697;42.770;23.400;2023-05-20T09:39:59;95792.94;;;22.94;46.50
32197;BME280;18697;42.770;23.400;2023-05-20T09:42:37;95801.31;;;23.00;45.17
32197;BME280;18697;42.770;23.400;2023-05-20T09:45:07;95802.50;;;23.04;45.75
32197;BME280;18697;42.770;23.400;2023-05-20T09:47:37;95789.97;;;23.26;45.87
32197;BME280;18697;42.770;23.400;2023-05-20T09:50:07;95791.84;;;23.37;46.42
32197;BME280;18697;42.770;23.400;2023-05-20T09:52:36;95779.09;;;23.56;45.86
32197;BME280;18697;42.770;23.400;2023-05-20T09:55:04;95789.88;;;23.58;45.06
32197;BME280;18697;42.770;23.400;2023-05-20T09:57:36;95771.66;;;23.67;44.64
32197;BME280;18697;42.770;23.400;2023-05-20T10:00:04;95776.56;;;24.00;45.78
32197;BME280;18697;42.770;23.400;2023-05-20T10:02:30;95770.25;;;23.94;45.60
32197;BME280;18697;42.770;23.400;2023-05-20T10:04:58;95746.47;;;23.97;46.53
32197;BME280;18697;42.770;23.400;2023-05-20T10:07:55;95766.28;;;24.10;44.88
32197;BME280;18697;42.770;23.400;2023-05-20T10:11:04;95769.38;;;24.33;43.69
32197;BME280;18697;42.770;23.400;2023-05-20T10:19:41;95757.84;;;24.60;42.92
32197;BME280;18697;42.770;23.400;2023-05-20T10:22:03;95759.47;;;24.27;41.72
32197;BME280;18697;42.770;23.400;2023-05-20T10:24:37;95751.81;;;24.21;43.19
32197;BME280;18697;42.770;23.400;2023-05-20T10:27:08;95751.28;;;23.42;44.36
32197;BME280;18697;42.770;23.400;2023-05-20T10:29:41;95735.41;;;22.86;44.36
32197;BME280;18697;42.770;23.400;2023-05-20T10:32:07;95747.97;;;22.58;45.82
32197;BME280;18697;42.770;23.400;2023-05-20T10:34:46;95736.19;;;23.00;45.41
32197;BME280;18697;42.770;23.400;2023-05-20T10:37:30;95738.66;;;23.30;44.89
32197;BME280;18697;42.770;23.400;2023-05-20T10:42:30;95721.06;;;23.71;44.21
32197;BME280;18697;42.770;23.400;2023-05-20T10:44:55;95730.06;;;24.03;44.24
32197;BME280;18697;42.770;23.400;2023-05-20T10:47:20;95733.28;;;24.20;42.52
32197;BME280;18697;42.770;23.400;2023-05-20T10:49:46;95722.16;;;23.88;43.30
32197;BME280;18697;42.770;23.400;2023-05-20T10:52:18;95730.19;;;23.77;44.49
32197;BME280;18697;42.770;23.400;2023-05-20T10:55:02;95712.25;;;23.48;43.91
32197;BME280;18697;42.770;23.400;2023-05-20T10:57:29;95716.28;;;23.52;44.27
32197;BME280;18697;42.770;23.400;2023-05-20T10:59:56;95715.53;;;23.39;43.44
32197;BME280;18697;42.770;23.400;2023-05-20T11:02:22;95715.31;;;23.37;44.79
32197;BME280;18697;42.770;23.400;2023-05-20T11:04:51;95713.13;;;23.56;44.95
32197;BME280;18697;42.770;23.400;2023-05-20T11:07:24;95698.41;;;23.57;44.86
32197;BME280;18697;42.770;23.400;2023-05-20T11:09:50;95708.31;;;23.51;43.62
32197;BME280;18697;42.770;23.400;2023-05-20T11:12:16;95716.06;;;23.64;45.86
32197;BME280;18697;42.770;23.400;2023-05-20T11:14:41;95700.38;;;23.36;44.88
32197;BME280;18697;42.770;23.400;2023-05-20T11:17:06;95713.25;;;23.24;44.46
32197;BME280;18697;42.770;23.400;2023-05-20T11:19:32;95705.78;;;23.00;44.67
32197;BME280;18697;42.770;23.400;2023-05-20T11:21:57;95708.34;;;23.24;46.21
32197;BME280;18697;42.770;23.400;2023-05-20T11:24:27;95698.22;;;23.16;44.53
32197;BME280;18697;42.770;23.400;2023-05-20T11:26:56;95691.34;;;23.38;44.55
32197;BME280;18697;42.770;23.400;2023-05-20T11:29:22;95681.06;;;23.48;44.38
32197;BME280;18697;42.770;23.400;2023-05-20T11:31:51;95673.75;;;23.52;45.27
32197;BME280;18697;42.770;23.400;2023-05-20T11:34:20;95679.53;;;23.60;43.98
32197;BME280;18697;42.770;23.400;2023-05-20T11:36:47;95677.34;;;23.66;43.35
32197;BME280;18697;42.770;23.400;2023-05-20T11:39:15;95682.16;;;23.79;44.15
32197;BME280;18697;42.770;23.400;2023-05-20T11:41:43;95677.41;;;23.74;44.15
32197;BME280;18697;42.770;23.400;2023-05-20T11:44:09;95669.25;;;23.70;43.40
32197;BME280;18697;42.770;23.400;2023-05-20T11:46:44;95661.72;;;23.73;43.83
32197;BME280;18697;42.770;23.400;2023-05-20T11:49:12;95652.44;;;23.72;45.32
32197;BME280;18697;42.770;23.400;2023-05-20T11:51:37;95662.31;;;23.79;45.74
32197;BME280;18697;42.770;23.400;2023-05-20T11:54:05;95658.16;;;23.59;43.52
32197;BME280;18697;42.770;23.400;2023-05-20T11:56:37;95654.66;;;23.66;44.49
32197;BME280;18697;42.770;23.400;2023-05-20T11:59:04;95665.16;;;23.45;42.06
32197;BME280;18697;42.770;23.400;2023-05-20T12:01:32;95654.94;;;23.28;43.67
32197;BME280;18697;42.770;23.400;2023-05-20T12:03:58;95654.53;;;23.24;43.46
32197;BME280;18697;42.770;23.400;2023-05-20T12:06:24;95651.59;;;23.17;44.87
32197;BME280;18697;42.770;23.400;2023-05-20T12:08:49;95652.81;;;23.08;45.29
32197;BME280;18697;42.770;23.400;2023-05-20T12:11:15;95650.47;;;22.86;46.57
32197;BME280;18697;42.770;23.400;2023-05-20T12:13:40;95652.88;;;22.82;45.74
32197;BME280;18697;42.770;23.400;2023-05-20T12:16:06;95646.09;;;22.72;46.03
32197;BME280;18697;42.770;23.400;2023-05-20T12:18:32;95647.72;;;22.54;46.45
32197;BME280;18697;42.770;23.400;2023-05-20T12:21:00;95652.94;;;22.63;47.16
32197;BME280;18697;42.770;23.400;2023-05-20T12:23:26;95648.16;;;22.71;45.42
32197;BME280;18697;42.770;23.400;2023-05-20T12:25:53;95662.75;;;22.62;46.28
32197;BME280;18697;42.770;23.400;2023-05-20T12:28:18;95667.38;;;22.33;47.73
32197;BME280;18697;42.770;23.400;2023-05-20T12:30:44;95673.78;;;22.07;46.44
32197;BME280;18697;42.770;23.400;2023-05-20T12:33:09;95683.28;;;21.72;46.89
32197;BME280;18697;42.770;23.400;2023-05-20T12:35:39;95687.91;;;22.07;45.90
32197;BME280;18697;42.770;23.400;2023-05-20T12:38:05;95677.75;;;21.98;45.05
32197;BME280;18697;42.770;23.400;2023-05-20T12:40:31;95686.28;;;21.61;44.90
32197;BME280;18697;42.770;23.400;2023-05-20T12:42:57;95680.19;;;21.57;43.65
32197;BME280;18697;42.770;23.400;2023-05-20T12:45:23;95675.41;;;21.52;44.45
32197;BME280;18697;42.770;23.400;2023-05-20T12:47:48;95682.38;;;21.64;45.62
32197;BME280;18697;42.770;23.400;2023-05-20T12:50:14;95670.13;;;21.43;44.55
32197;BME280;18697;42.770;23.400;2023-05-20T12:52:39;95653.72;;;21.41;45.25
32197;BME280;18697;42.770;23.400;2023-05-20T12:55:06;95654.78;;;21.38;46.32